Time;durP1;ratioP1;P1;durP2;ratioP2;P2;SDS_P1;SDS_P2;PMS_P1;PMS_P2;Temp;Humidity;BMP_temperature;BMP_pressure;BME280_temperature;BME280_humidity;BME280_pressure;Samples;Min_cycle;Max_cycle;Signal;HPM_P1;HPM_P2
2021/03/16 00:00:10;;;;;;;55.63;33.73;;;;;;;5.59;91.40;98758.08;1771763;80;21570;-64
2021/03/16 00:02:56;;;;;;;53.75;31.70;;;;;;;5.52;91.52;98758.73;1784922;80;21371;-62
2021/03/16 00:05:26;;;;;;;53.08;32.70;;;;;;;5.47;91.39;98755.98;1784823;80;21066;-64
2021/03/16 00:07:53;;;;;;;56.25;35.30;;;;;;;5.40;91.45;98750.81;1783554;80;21176;-65
2021/03/16 00:10:21;;;;;;;52.88;34.05;;;;;;;5.39;91.63;98758.52;1747727;82;21158;-64
2021/03/16 00:12:50;;;;;;;39.98;28.70;;;;;;;5.42;91.82;98758.03;1760695;81;21202;-68
2021/03/16 00:15:17;;;;;;;44.33;30.40;;;;;;;5.46;91.83;98750.39;1767164;81;21383;-67
2021/03/16 00:17:45;;;;;;;48.42;33.53;;;;;;;5.46;91.81;98749.86;1767131;81;21168;-68
2021/03/16 00:20:14;;;;;;;57.00;36.63;;;;;;;5.50;91.81;98754.19;1780094;80;21723;-68
2021/03/16 00:22:42;;;;;;;61.63;39.58;;;;;;;5.54;91.59;98755.32;1765523;80;21576;-66
2021/03/16 00:25:12;;;;;;;70.30;45.75;;;;;;;5.55;91.31;98751.61;1746554;82;21238;-69
2021/03/16 00:27:40;;;;;;;60.20;37.58;;;;;;;5.53;91.06;98757.70;1747618;82;21384;-66
2021/03/16 00:30:09;;;;;;;49.33;33.28;;;;;;;5.55;90.88;98756.42;1747524;82;21024;-67
2021/03/16 00:32:37;;;;;;;38.42;26.40;;;;;;;5.53;90.41;98751.84;1747648;82;21155;-68
2021/03/16 00:35:07;;;;;;;35.10;25.97;;;;;;;5.49;90.21;98748.56;1747585;82;21092;-63
2021/03/16 00:37:35;;;;;;;36.40;26.35;;;;;;;5.43;90.00;98750.84;1747881;80;21281;-67
2021/03/16 00:40:04;;;;;;;33.30;25.68;;;;;;;5.37;89.81;98749.94;1755956;81;21462;-63
2021/03/16 00:42:32;;;;;;;35.78;22.30;;;;;;;5.34;89.82;98753.61;1756957;81;21634;-62
2021/03/16 00:44:59;;;;;;;31.42;19.98;;;;;;;5.36;89.87;98744.87;1756967;81;21586;-63
2021/03/16 00:47:27;;;;;;;22.60;16.62;;;;;;;5.38;89.72;98745.42;1756842;81;21196;-64
2021/03/16 00:49:56;;;;;;;29.35;22.58;;;;;;;5.33;89.17;98743.47;1757020;81;21182;-68
2021/03/16 00:52:25;;;;;;;36.93;25.60;;;;;;;5.26;89.01;98742.83;1757109;81;21152;-64
2021/03/16 00:54:52;;;;;;;34.88;25.85;;;;;;;5.21;88.91;98750.72;1757076;81;21180;-64
2021/03/16 00:57:22;;;;;;;40.38;29.80;;;;;;;5.12;88.78;98746.30;1756929;81;21164;-63
2021/03/16 00:59:49;;;;;;;36.50;27.35;;;;;;;5.02;88.99;98751.95;1764569;80;21160;-64
2021/03/16 01:02:19;;;;;;;37.80;25.82;;;;;;;4.98;89.20;98748.15;1785772;80;21113;-64
2021/03/16 01:04:46;;;;;;;40.08;27.62;;;;;;;4.92;89.30;98737.09;1788216;80;21652;-65
2021/03/16 01:07:14;;;;;;;37.50;24.60;;;;;;;4.87;89.30;98737.00;1788073;80;21161;-66
2021/03/16 01:09:41;;;;;;;37.98;26.15;;;;;;;4.87;89.48;98745.80;1787796;79;21216;-62
2021/03/16 01:12:09;;;;;;;42.40;29.20;;;;;;;4.84;89.41;98749.73;1774349;80;21209;-62
2021/03/16 01:14:36;;;;;;;44.50;27.60;;;;;;;4.84;89.44;98749.73;1761791;80;21151;-62
2021/03/16 01:17:04;;;;;;;45.83;28.92;;;;;;;4.83;89.29;98749.47;1787874;80;21217;-62
2021/03/16 01:19:32;;;;;;;37.60;24.12;;;;;;;4.83;89.34;98752.65;1787874;80;21189;-63
2021/03/16 01:21:59;;;;;;;44.27;28.10;;;;;;;4.82;89.19;98745.70;1787507;80;21127;-66
2021/03/16 01:24:27;;;;;;;44.95;25.75;;;;;;;4.82;89.17;98753.69;1787828;80;21619;-66
2021/03/16 01:26:54;;;;;;;42.90;27.85;;;;;;;4.86;88.99;98748.69;1787969;80;21126;-68
2021/03/16 01:29:23;;;;;;;42.27;27.55;;;;;;;4.90;88.99;98747.98;1788084;80;21389;-64
2021/03/16 01:31:50;;;;;;;42.30;28.17;;;;;;;4.92;88.69;98747.75;1788046;80;21182;-64
2021/03/16 01:34:57;;;;;;;46.25;30.05;;;;;;;4.96;88.60;98744.90;1788397;80;21131;-64
2021/03/16 01:37:25;;;;;;;59.23;32.70;;;;;;;4.95;88.38;98741.94;1787999;80;21198;-65
2021/03/16 01:39:54;;;;;;;54.55;32.90;;;;;;;4.97;88.26;98742.01;1786209;80;21094;-66
2021/03/16 01:42:21;;;;;;;48.75;27.00;;;;;;;4.93;88.01;98736.88;1784523;80;21568;-63
2021/03/16 01:44:48;;;;;;;41.45;27.55;;;;;;;4.88;87.52;98728.78;1784668;80;21141;-66
2021/03/16 01:47:17;;;;;;;52.55;32.53;;;;;;;4.86;87.62;98727.38;1784737;80;20991;-66
2021/03/16 01:49:45;;;;;;;37.88;26.65;;;;;;;4.87;87.64;98719.68;1784739;80;21157;-68
2021/03/16 01:52:13;;;;;;;32.70;23.80;;;;;;;4.87;87.22;98713.02;1784772;80;21559;-64
2021/03/16 01:54:41;;;;;;;32.78;22.60;;;;;;;4.86;87.14;98720.20;1756542;80;21286;-64
2021/03/16 01:57:09;;;;;;;36.00;23.32;;;;;;;4.81;86.79;98722.24;1784690;80;21209;-64
2021/03/16 01:59:55;;;;;;;25.50;17.27;;;;;;;4.73;86.35;98730.61;1784028;80;21125;-64
2021/03/16 02:02:41;;;;;;;36.83;21.70;;;;;;;4.62;86.62;98722.12;1774483;80;21316;-63
2021/03/16 02:05:27;;;;;;;26.73;20.85;;;;;;;4.62;86.62;98722.12;1767322;81;21142;-65
2021/03/16 02:08:47;;;;;;;27.67;18.15;;;;;;;4.58;86.70;98722.83;1759370;80;22399;-63
2021/03/16 02:11:45;;;;;;;33.85;19.75;;;;;;;4.58;86.86;98724.97;1766541;81;21133;-64
2021/03/16 02:14:37;;;;;;;27.52;20.68;;;;;;;4.51;86.72;98723.49;1766141;80;21642;-61
2021/03/16 02:17:31;;;;;;;30.82;18.92;;;;;;;4.49;86.68;98730.89;1779620;80;21125;-65
2021/03/16 02:20:49;;;;;;;;;;;;;;;4.46;86.67;98737.47;1787561;80;21117;-62
2021/03/16 02:24:10;;;;;;;39.58;29.05;;;;;;;4.42;86.66;98733.66;1782427;80;21195;-63
2021/03/16 02:27:17;;;;;;;46.83;32.78;;;;;;;4.39;86.77;98734.14;1784770;80;21135;-62
2021/03/16 02:30:05;;;;;;;42.25;30.48;;;;;;;4.31;86.54;98744.63;1782284;80;21062;-63
2021/03/16 02:32:53;;;;;;;29.87;24.82;;;;;;;4.25;86.70;98744.74;1772023;80;21137;-63
2021/03/16 02:35:40;;;;;;;35.60;25.77;;;;;;;4.25;86.92;98746.07;1755178;80;21161;-63
2021/03/16 02:38:30;;;;;;;34.10;24.57;;;;;;;4.22;86.90;98754.53;1757756;81;22329;-62
2021/03/16 02:41:16;;;;;;;30.55;20.27;;;;;;;4.26;86.87;98747.18;1764967;80;21159;-64
2021/03/16 02:44:02;;;;;;;25.40;19.35;;;;;;;4.23;86.69;98746.30;1787475;80;21205;-63
2021/03/16 02:46:49;;;;;;;33.38;23.75;;;;;;;4.20;86.65;98746.77;1788068;79;20935;-63
2021/03/16 02:49:40;;;;;;;27.75;19.73;;;;;;;4.13;86.39;98751.37;1787946;80;21141;-64
2021/03/16 02:52:26;;;;;;;30.57;20.35;;;;;;;4.09;86.36;98748.90;1786706;80;21382;-65
2021/03/16 02:55:13;;;;;;;29.77;18.98;;;;;;;4.05;86.45;98746.41;1778241;80;21133;-62
2021/03/16 02:58:01;;;;;;;27.80;18.87;;;;;;;4.02;86.24;98740.23;1788248;80;21146;-62
2021/03/16 03:00:48;;;;;;;33.95;21.65;;;;;;;3.98;86.31;98736.94;1787847;79;21164;-61
2021/03/16 03:03:36;;;;;;;25.30;16.87;;;;;;;3.98;86.21;98742.26;1788113;80;21164;-62
2021/03/16 03:06:22;;;;;;;26.70;18.73;;;;;;;3.94;86.15;98741.38;1768365;79;21268;-61
2021/03/16 03:09:12;;;;;;;33.78;21.07;;;;;;;3.90;86.19;98740.73;1787770;80;20998;-62
2021/03/16 03:11:57;;;;;;;33.88;22.27;;;;;;;3.86;86.16;98738.25;1788074;80;20998;-63
2021/03/16 03:14:44;;;;;;;32.00;22.62;;;;;;;3.85;86.35;98737.44;1788132;79;21161;-64
2021/03/16 03:17:30;;;;;;;27.82;21.55;;;;;;;3.87;86.23;98736.70;1788114;80;21094;-62
2021/03/16 03:20:16;;;;;;;31.62;23.73;;;;;;;3.79;86.02;98739.67;1788206;79;22273;-62
2021/03/16 03:23:15;;;;;;;28.75;23.27;;;;;;;3.74;86.26;98737.44;1787957;80;21173;-63
2021/03/16 03:26:03;;;;;;;25.50;17.60;;;;;;;3.69;86.25;98737.31;1785704;80;21125;-64
2021/03/16 03:28:50;;;;;;;30.68;22.25;;;;;;;3.61;86.49;98732.30;1788097;79;21153;-63
2021/03/16 03:31:42;;;;;;;25.08;17.10;;;;;;;3.59;86.62;98741.05;1788099;80;21573;-63
2021/03/16 03:34:33;;;;;;;28.17;20.77;;;;;;;3.58;86.68;98738.90;1788318;80;21349;-63
2021/03/16 03:37:22;;;;;;;33.40;22.80;;;;;;;3.48;86.58;98738.64;1751050;82;21020;-63
2021/03/16 03:40:09;;;;;;;34.18;22.32;;;;;;;3.37;86.72;98743.39;1728468;82;21586;-62
2021/03/16 03:42:56;;;;;;;39.03;24.52;;;;;;;3.25;86.98;98734.08;1692893;84;21641;-61
2021/03/16 03:45:42;;;;;;;48.25;25.48;;;;;;;3.14;87.33;98745.45;1718170;83;21150;-63
2021/03/16 03:48:28;;;;;;;35.98;22.60;;;;;;;3.06;87.61;98745.78;1691455;84;21217;-61
2021/03/16 03:51:14;;;;;;;34.95;22.90;;;;;;;3.03;87.83;98743.04;1725486;82;21185;-62
2021/03/16 03:54:01;;;;;;;45.23;23.67;;;;;;;2.99;87.94;98740.55;1734644;82;21109;-61
2021/03/16 03:56:47;;;;;;;40.20;25.90;;;;;;;2.96;87.93;98741.52;1734658;82;21174;-62
2021/03/16 03:59:33;;;;;;;30.50;19.90;;;;;;;2.93;88.08;98732.66;1734452;82;21584;-61
2021/03/16 04:02:19;;;;;;;30.97;18.35;;;;;;;2.98;88.14;98732.28;1748154;82;21424;-62
2021/03/16 04:05:07;;;;;;;31.50;22.67;;;;;;;2.96;87.98;98733.55;1749932;82;21192;-63
2021/03/16 04:07:54;;;;;;;36.03;25.05;;;;;;;2.92;87.96;98733.20;1749904;82;21170;-61
2021/03/16 04:10:41;;;;;;;27.17;22.05;;;;;;;2.88;87.87;98730.67;1750191;82;21210;-63
2021/03/16 04:13:27;;;;;;;37.95;25.92;;;;;;;2.80;87.95;98729.66;1750045;82;21167;-64
2021/03/16 04:16:14;;;;;;;37.15;25.15;;;;;;;2.75;88.13;98733.50;1749015;82;21401;-63
2021/03/16 04:19:00;;;;;;;32.48;25.00;;;;;;;2.64;88.38;98727.59;1749801;82;21134;-63
2021/03/16 04:21:46;;;;;;;37.78;25.05;;;;;;;2.56;88.73;98727.39;1750400;82;21111;-63
2021/03/16 04:24:36;;;;;;;33.60;23.70;;;;;;;2.52;88.91;98728.06;1705506;84;21184;-64
2021/03/16 04:27:24;;;;;;;29.50;21.12;;;;;;;2.54;89.19;98724.68;1698952;82;21189;-64
2021/03/16 04:30:12;;;;;;;29.77;21.90;;;;;;;2.59;89.33;98727.48;1722014;83;21418;-61
2021/03/16 04:32:58;;;;;;;31.73;22.65;;;;;;;2.57;89.24;98722.90;1740748;82;21131;-63
2021/03/16 04:35:44;;;;;;;40.83;26.77;;;;;;;2.54;89.30;98726.01;1749939;82;21210;-63
2021/03/16 04:38:30;;;;;;;33.23;23.07;;;;;;;2.50;89.44;98730.92;1750012;82;21584;-63
2021/03/16 04:41:15;;;;;;;51.45;27.37;;;;;;;2.53;89.55;98729.69;1748170;82;21170;-63
2021/03/16 04:44:02;;;;;;;45.73;27.25;;;;;;;2.54;89.58;98727.33;1747599;81;22291;-62
2021/03/16 04:46:47;;;;;;;37.03;22.90;;;;;;;2.55;89.71;98727.09;1724577;82;26742;-62
2021/03/16 04:49:34;;;;;;;49.35;30.45;;;;;;;2.60;89.73;98723.26;1710519;82;21031;-62
2021/03/16 04:52:20;;;;;;;37.05;24.35;;;;;;;2.60;89.52;98727.23;1708046;84;21190;-61
2021/03/16 04:55:08;;;;;;;44.50;26.77;;;;;;;2.61;89.50;98727.54;1710341;82;21182;-63
2021/03/16 04:57:54;;;;;;;42.98;25.32;;;;;;;2.57;89.45;98736.17;1745230;82;21386;-63
2021/03/16 05:00:40;;;;;;;32.78;22.02;;;;;;;2.58;89.60;98731.97;1676836;83;21159;-63
2021/03/16 05:03:26;;;;;;;33.42;23.38;;;;;;;2.61;89.68;98726.72;1687458;85;21207;-62
2021/03/16 05:06:12;;;;;;;39.55;24.10;;;;;;;2.63;89.46;98737.95;1716967;83;21166;-63
2021/03/16 05:08:58;;;;;;;39.45;23.73;;;;;;;2.62;89.42;98737.13;1723751;82;21105;-62
2021/03/16 05:11:44;;;;;;;33.65;20.90;;;;;;;2.58;89.34;98740.45;1737624;82;21642;-67
2021/03/16 05:14:30;;;;;;;31.57;20.72;;;;;;;2.57;89.55;98740.15;1702149;83;21151;-65
2021/03/16 05:17:16;;;;;;;36.17;23.85;;;;;;;2.58;89.65;98741.27;1734270;82;21161;-65
2021/03/16 05:20:05;;;;;;;33.35;20.92;;;;;;;2.57;89.59;98740.15;1754220;81;21196;-62
2021/03/16 05:22:51;;;;;;;32.48;21.85;;;;;;;2.54;89.66;98737.95;1716040;83;21126;-62
2021/03/16 05:25:37;;;;;;;35.65;24.18;;;;;;;2.49;89.89;98743.92;1737486;82;21401;-65
2021/03/16 05:28:23;;;;;;;43.95;29.72;;;;;;;2.50;89.97;98736.74;1747667;82;21651;-62
2021/03/16 05:31:08;;;;;;;46.13;28.90;;;;;;;2.51;90.06;98741.02;1706907;83;21197;-64
2021/03/16 05:33:54;;;;;;;66.67;40.15;;;;;;;2.52;90.18;98740.81;1702004;84;21147;-62
2021/03/16 05:36:40;;;;;;;56.83;37.80;;;;;;;2.55;90.21;98743.02;1673791;85;21153;-62
2021/03/16 05:39:26;;;;;;;57.08;32.80;;;;;;;2.59;90.19;98747.39;1701968;84;21385;-64
2021/03/16 05:42:12;;;;;;;50.00;32.55;;;;;;;2.60;90.22;98741.84;1677157;83;21082;-64
2021/03/16 05:44:59;;;;;;;45.88;29.52;;;;;;;2.60;90.17;98737.86;1719863;83;21144;-62
2021/03/16 05:47:47;;;;;;;39.42;26.12;;;;;;;2.61;90.28;98738.16;1705902;84;21216;-62
2021/03/16 05:50:39;;;;;;;38.45;24.12;;;;;;;2.67;90.35;98736.98;1740876;82;20995;-63
2021/03/16 05:53:24;;;;;;;37.45;23.40;;;;;;;2.66;90.25;98737.48;1750660;82;21340;-62
2021/03/16 05:56:10;;;;;;;34.70;21.75;;;;;;;2.72;90.34;98742.43;1719579;83;21835;-61
2021/03/16 05:58:56;;;;;;;35.58;24.12;;;;;;;2.79;90.21;98743.14;1750873;82;21165;-63
2021/03/16 06:01:42;;;;;;;36.98;26.50;;;;;;;2.81;89.99;98745.08;1719256;83;21602;-63
2021/03/16 06:04:29;;;;;;;26.27;17.87;;;;;;;2.79;90.08;98747.94;1738847;81;21212;-62
2021/03/16 06:07:15;;;;;;;33.55;21.25;;;;;;;2.86;90.08;98753.19;1705723;84;21590;-63
2021/03/16 06:10:01;;;;;;;30.37;20.20;;;;;;;2.88;90.04;98752.42;1705808;84;21614;-62
2021/03/16 06:12:47;;;;;;;30.02;21.93;;;;;;;2.91;90.10;98751.48;1705805;84;21165;-62
2021/03/16 06:15:33;;;;;;;33.15;21.85;;;;;;;3.03;90.28;98754.18;1712118;82;22586;-62
2021/03/16 06:18:26;;;;;;;26.73;18.57;;;;;;;3.18;90.22;98759.09;1750833;82;21182;-61
2021/03/16 06:21:20;;;;;;;29.57;18.25;;;;;;;3.26;89.84;98763.56;1750863;82;21687;-62
2021/03/16 06:24:11;;;;;;;30.08;19.52;;;;;;;3.35;89.55;98764.91;1731969;82;21030;-61
2021/03/16 06:26:57;;;;;;;23.22;16.57;;;;;;;3.35;89.09;98767.56;1719690;83;21606;-60
2021/03/16 06:29:46;;;;;;;22.77;15.80;;;;;;;3.42;89.12;98776.23;1751000;82;21109;-61
2021/03/16 06:32:37;;;;;;;29.63;21.05;;;;;;;3.48;88.90;98778.51;1719549;83;21003;-62
2021/03/16 06:35:24;;;;;;;25.48;17.12;;;;;;;3.51;88.72;98776.72;1750966;82;21287;-63
2021/03/16 06:38:11;;;;;;;26.07;17.50;;;;;;;3.54;88.78;98780.78;1694118;83;21682;-60
2021/03/16 06:41:16;;;;;;;29.00;17.98;;;;;;;3.56;88.68;98782.68;1731842;81;21591;-61
2021/03/16 06:44:04;;;;;;;29.92;19.70;;;;;;;3.60;88.71;98784.66;1750951;82;21211;-61
2021/03/16 06:46:58;;;;;;;27.95;18.37;;;;;;;3.64;88.71;98779.20;1751051;82;21183;-65
2021/03/16 06:49:43;;;;;;;36.58;22.75;;;;;;;3.73;88.80;98777.84;1721296;83;21516;-62
2021/03/16 06:52:32;;;;;;;41.68;24.55;;;;;;;3.80;88.86;98787.02;1731903;82;21664;-60
2021/03/16 06:55:20;;;;;;;46.33;26.23;;;;;;;3.91;88.77;98791.56;1689275;85;21145;-62
2021/03/16 06:58:07;;;;;;;37.98;23.00;;;;;;;4.02;88.60;98791.30;1689290;85;21113;-61
2021/03/16 07:01:09;;;;;;;29.52;20.32;;;;;;;4.09;88.24;98802.11;1714242;83;21169;-62
2021/03/16 07:04:14;;;;;;;24.95;16.32;;;;;;;4.17;88.29;98812.95;1707467;84;21387;-61
2021/03/16 07:07:00;;;;;;;27.62;17.48;;;;;;;4.27;88.20;98804.66;1719573;83;21173;-62
2021/03/16 07:09:47;;;;;;;22.48;13.83;;;;;;;4.36;87.65;98807.81;1707398;84;21701;-60
2021/03/16 07:12:35;;;;;;;22.73;15.88;;;;;;;4.43;87.26;98798.36;1719563;83;21639;-63
2021/03/16 07:15:22;;;;;;;20.15;14.15;;;;;;;4.55;87.39;98795.19;1734121;82;21140;-61
2021/03/16 07:18:11;;;;;;;21.77;14.83;;;;;;;4.66;86.97;98799.16;1706936;82;21208;-62
2021/03/16 07:21:01;;;;;;;22.52;13.08;;;;;;;4.78;86.87;98795.16;1705414;84;21156;-63
2021/03/16 07:23:53;;;;;;;23.40;15.25;;;;;;;4.90;86.11;98796.45;1707487;84;21143;-62
2021/03/16 07:26:39;;;;;;;20.77;14.13;;;;;;;4.88;85.27;98793.23;1705714;84;21136;-62
2021/03/16 07:29:25;;;;;;;23.92;14.55;;;;;;;4.88;85.16;98789.23;1678790;85;21156;-61
2021/03/16 07:32:13;;;;;;;23.40;16.60;;;;;;;4.87;84.75;98779.62;1680251;85;21637;-62
2021/03/16 07:35:02;;;;;;;24.75;15.32;;;;;;;4.89;84.81;98782.35;1678765;85;21182;-66
2021/03/16 07:37:49;;;;;;;28.47;15.63;;;;;;;4.89;84.55;98780.20;1679679;85;21115;-62
2021/03/16 07:40:38;;;;;;;18.00;13.68;;;;;;;4.89;84.52;98772.22;1693105;84;21203;-62
2021/03/16 07:43:40;;;;;;;27.20;16.35;;;;;;;4.92;84.09;98773.06;1723757;83;21594;-60
2021/03/16 07:46:51;;;;;;;23.22;16.55;;;;;;;5.06;84.35;98778.41;1700005;83;21228;-62
2021/03/16 07:49:39;;;;;;;22.45;15.60;;;;;;;5.06;84.35;98778.41;1689895;85;21131;-63
2021/03/16 07:52:26;;;;;;;30.72;16.93;;;;;;;5.09;84.08;98777.92;1689394;85;21226;-63
2021/03/16 07:55:28;;;;;;;21.95;15.30;;;;;;;5.13;83.95;98768.44;1689327;85;21187;-62
2021/03/16 07:58:15;;;;;;;27.35;14.83;;;;;;;5.17;83.97;98762.39;1689352;85;21222;-61
2021/03/16 08:01:07;;;;;;;25.77;16.15;;;;;;;5.25;83.96;98755.86;1712259;83;21284;-61
2021/03/16 08:04:10;;;;;;;36.17;19.32;;;;;;;5.31;84.04;98756.77;1749995;82;21173;-63
2021/03/16 08:07:00;;;;;;;33.53;20.85;;;;;;;5.40;83.80;98758.81;1706973;82;21201;-62
2021/03/16 08:09:51;;;;;;;23.95;16.55;;;;;;;5.44;83.60;98759.14;1750053;82;21142;-63
2021/03/16 08:12:38;;;;;;;29.55;16.60;;;;;;;5.51;83.76;98755.30;1718629;83;21279;-63
2021/03/16 08:15:24;;;;;;;25.60;17.17;;;;;;;5.66;83.84;98746.72;1734792;82;21402;-63
2021/03/16 08:18:16;;;;;;;26.40;15.23;;;;;;;5.75;83.49;98755.16;1749792;82;21105;-61
2021/03/16 08:21:11;;;;;;;21.97;14.90;;;;;;;5.78;83.10;98762.66;1734721;82;21112;-64
2021/03/16 08:24:12;;;;;;;27.75;17.42;;;;;;;5.82;82.86;98759.27;1750032;82;21153;-63
2021/03/16 08:26:52;;;;;;;29.53;15.87;;;;;;;6.02;82.99;98748.95;1864120;76;26144;-63
2021/03/16 08:29:45;;;;;;;25.85;14.95;;;;;;;6.02;82.99;98748.95;1840853;77;21010;-63
2021/03/16 08:32:31;;;;;;;21.57;13.72;;;;;;;6.10;82.38;98750.40;1831666;77;21387;-60
2021/03/16 08:35:18;;;;;;;31.62;14.95;;;;;;;6.20;82.00;98748.41;1826256;78;20987;-61
2021/03/16 08:38:03;;;;;;;24.67;15.50;;;;;;;6.23;81.74;98754.09;1830488;77;20925;-63
2021/03/16 08:41:06;;;;;;;21.50;15.15;;;;;;;6.32;81.75;98761.16;1850197;77;21111;-61
2021/03/16 08:43:53;;;;;;;27.07;16.80;;;;;;;6.41;81.20;98757.83;1850424;77;21027;-62
2021/03/16 08:46:39;;;;;;;25.57;15.28;;;;;;;6.44;80.71;98759.17;1849848;77;21289;-63
2021/03/16 08:49:26;;;;;;;24.12;16.87;;;;;;;6.46;80.69;98754.41;1851988;77;20972;-62
2021/03/16 08:52:21;;;;;;;22.35;15.78;;;;;;;6.45;80.44;98758.13;1851728;77;21002;-63
2021/03/16 08:55:08;;;;;;;29.52;20.88;;;;;;;6.43;80.35;98758.37;1851957;77;21117;-62
2021/03/16 08:57:56;;;;;;;35.85;19.30;;;;;;;6.44;80.46;98752.50;1847023;77;21117;-60
2021/03/16 09:00:42;;;;;;;31.75;19.55;;;;;;;6.50;80.67;98752.86;1854919;77;21907;-63
2021/03/16 09:03:30;;;;;;;27.22;17.42;;;;;;;6.61;80.78;98745.27;1859915;77;21148;-64
2021/03/16 09:06:18;;;;;;;24.75;16.80;;;;;;;6.66;80.38;98751.21;1860060;77;20931;-64
2021/03/16 09:09:06;;;;;;;22.07;15.50;;;;;;;6.73;80.32;98735.27;1859174;77;21117;-63
2021/03/16 09:11:54;;;;;;;37.70;19.48;;;;;;;6.79;79.96;98746.30;1832189;77;21101;-62
2021/03/16 09:14:40;;;;;;;27.85;17.82;;;;;;;6.88;79.69;98748.82;1826330;78;21390;-61
2021/03/16 09:17:32;;;;;;;21.30;14.93;;;;;;;6.98;79.25;98749.47;1820624;78;21050;-64
2021/03/16 09:20:33;;;;;;;29.90;16.00;;;;;;;7.05;79.39;98754.08;1822559;78;21111;-62
2021/03/16 09:23:18;;;;;;;27.00;15.05;;;;;;;7.11;78.84;98756.30;1822566;78;21133;-62
2021/03/16 09:26:04;;;;;;;21.17;16.95;;;;;;;7.19;78.96;98755.34;1826148;78;21129;-61
2021/03/16 09:28:51;;;;;;;27.17;16.30;;;;;;;7.24;78.17;98758.60;1828955;77;21196;-61
2021/03/16 09:31:38;;;;;;;30.35;17.70;;;;;;;7.23;77.88;98751.63;1828891;78;21050;-62
2021/03/16 09:34:25;;;;;;;23.85;15.70;;;;;;;7.24;77.95;98756.70;1762659;78;20994;-63
2021/03/16 09:37:13;;;;;;;22.27;13.38;;;;;;;7.23;77.71;98762.33;1828429;78;21038;-59
2021/03/16 09:40:13;;;;;;;25.17;13.72;;;;;;;7.32;77.88;98761.63;1883147;76;28253;-61
2021/03/16 09:42:49;;;;;;;22.20;15.10;;;;;;;7.27;77.82;98762.91;1769149;80;21169;-63
2021/03/16 09:45:23;;;;;;;24.05;17.07;;;;;;;7.32;78.08;98763.49;1819051;78;21194;-63
2021/03/16 09:47:50;;;;;;;23.67;15.30;;;;;;;7.34;77.98;98761.36;1818943;78;20995;-61
2021/03/16 09:50:33;;;;;;;28.10;15.95;;;;;;;7.35;77.46;98761.12;1819127;78;20999;-62
2021/03/16 09:53:05;;;;;;;22.20;12.80;;;;;;;7.29;77.17;98764.01;1819267;78;20964;-61
2021/03/16 09:55:33;;;;;;;17.77;14.07;;;;;;;7.15;77.20;98771.58;1819305;78;21647;-63
2021/03/16 09:58:01;;;;;;;21.95;15.20;;;;;;;7.15;77.57;98772.92;1820879;77;21360;-61
2021/03/16 10:00:29;;;;;;;24.35;14.68;;;;;;;7.18;77.65;98779.13;1820841;77;21043;-61
2021/03/16 10:03:08;;;;;;;26.07;15.85;;;;;;;7.21;77.52;98769.78;1820770;78;21049;-61
2021/03/16 10:05:36;;;;;;;23.02;13.03;;;;;;;7.19;77.64;98779.41;1820823;78;20994;-63
2021/03/16 10:08:05;;;;;;;23.45;13.45;;;;;;;7.20;77.68;98775.66;1820786;78;21192;-62
2021/03/16 10:10:34;;;;;;;24.92;15.83;;;;;;;7.22;77.55;98772.21;1822737;77;21338;-63
2021/03/16 10:13:04;;;;;;;23.60;15.83;;;;;;;7.26;77.27;98771.17;1825168;77;21154;-62
2021/03/16 10:15:39;;;;;;;19.60;15.70;;;;;;;7.34;77.29;98769.38;1854167;77;21121;-61
2021/03/16 10:18:13;;;;;;;23.87;14.63;;;;;;;7.41;77.30;98772.16;1852763;77;21161;-62
2021/03/16 10:20:45;;;;;;;21.27;14.70;;;;;;;7.36;77.56;98766.75;1845085;77;21595;-62
2021/03/16 10:23:20;;;;;;;16.95;12.85;;;;;;;7.36;77.61;98782.80;1827569;77;22277;-61
2021/03/16 10:25:58;;;;;;;28.02;13.35;;;;;;;7.32;77.85;98776.86;1818366;78;21181;-61
2021/03/16 10:28:41;;;;;;;26.10;14.95;;;;;;;7.23;77.67;98772.50;1789389;78;21571;-62
2021/03/16 10:31:17;;;;;;;30.62;16.37;;;;;;;7.22;77.96;98768.20;1820970;78;21141;-64
2021/03/16 10:33:49;;;;;;;24.95;15.28;;;;;;;7.25;78.09;98777.05;1821990;77;21082;-64
2021/03/16 10:36:18;;;;;;;22.82;12.58;;;;;;;7.26;77.76;98772.52;1793276;79;21205;-63
2021/03/16 10:41:20;;;;;;;28.05;14.80;;;;;;;7.25;77.72;98773.56;1817068;78;21081;-62
2021/03/16 10:43:48;;;;;;;18.25;13.72;;;;;;;7.37;77.77;98780.41;1819864;78;20995;-63
2021/03/16 10:46:17;;;;;;;29.15;14.93;;;;;;;7.47;76.37;98780.23;1802475;78;21213;-63
2021/03/16 10:48:46;;;;;;;23.05;15.63;;;;;;;7.57;76.83;98777.14;1810732;78;21426;-63
2021/03/16 10:51:13;;;;;;;17.77;13.10;;;;;;;7.70;76.18;98774.58;1792128;78;21147;-61
2021/03/16 10:53:41;;;;;;;21.07;13.55;;;;;;;7.76;75.31;98775.72;1781219;80;21157;-60
2021/03/16 10:56:09;;;;;;;20.43;14.43;;;;;;;7.77;74.80;98770.62;1797707;78;21113;-64
2021/03/16 10:58:37;;;;;;;18.02;14.05;;;;;;;7.80;74.57;98764.78;1786922;80;21161;-64
2021/03/16 11:01:05;;;;;;;21.85;14.15;;;;;;;7.84;74.31;98773.91;1813123;78;21429;-64
2021/03/16 11:06:10;;;;;;;17.67;13.83;;;;;;;8.00;74.79;98766.02;1821094;76;29324;-63
2021/03/16 11:08:38;;;;;;;22.73;14.35;;;;;;;8.06;74.72;98764.44;1784881;80;21003;-63
2021/03/16 11:11:05;;;;;;;16.27;12.82;;;;;;;8.18;74.93;98757.05;1784818;80;21383;-63
2021/03/16 11:13:33;;;;;;;21.75;15.68;;;;;;;8.26;73.53;98747.19;1806592;79;21043;-62
2021/03/16 11:16:04;;;;;;;24.12;15.03;;;;;;;8.34;73.58;98752.64;1778413;78;21031;-62
2021/03/16 11:18:32;;;;;;;16.82;13.15;;;;;;;8.40;73.46;98746.76;1753762;80;21031;-63
2021/03/16 11:21:00;;;;;;;23.47;14.28;;;;;;;8.50;73.29;98752.18;1753784;81;21222;-62
2021/03/16 11:23:27;;;;;;;16.75;11.97;;;;;;;8.55;72.60;98749.53;1753763;80;21360;-64
2021/03/16 11:25:56;;;;;;;27.15;16.15;;;;;;;8.57;72.74;98749.56;1753711;81;21067;-63
2021/03/16 11:28:25;;;;;;;25.52;16.95;;;;;;;8.65;72.70;98747.72;1724771;81;20964;-62
2021/03/16 11:30:52;;;;;;;18.20;14.98;;;;;;;8.68;72.14;98750.43;1774814;80;20983;-62
2021/03/16 11:33:20;;;;;;;23.65;14.38;;;;;;;8.60;72.61;98742.33;1779499;80;21157;-61
2021/03/16 11:36:07;;;;;;;18.77;14.05;;;;;;;8.56;72.88;98749.28;1754961;80;21200;-64
2021/03/16 11:38:54;;;;;;;25.50;16.87;;;;;;;8.55;72.99;98745.52;1784860;79;21066;-67
2021/03/16 11:41:40;;;;;;;21.55;14.00;;;;;;;8.54;73.03;98739.88;1784958;79;21460;-64
2021/03/16 11:44:26;;;;;;;18.90;13.08;;;;;;;8.57;72.97;98739.38;1784932;80;21634;-64
2021/03/16 11:47:13;;;;;;;31.12;15.38;;;;;;;8.61;73.26;98739.12;1784871;80;21203;-65
2021/03/16 11:50:00;;;;;;;23.77;16.25;;;;;;;8.66;72.87;98733.79;1784752;80;21217;-62
2021/03/16 11:52:46;;;;;;;31.48;18.40;;;;;;;8.62;72.40;98729.48;1784878;80;21129;-63
2021/03/16 11:55:32;;;;;;;21.70;15.63;;;;;;;8.59;72.64;98735.35;1782494;80;20974;-65
2021/03/16 11:58:18;;;;;;;21.02;16.20;;;;;;;8.53;72.51;98732.39;1784657;80;21125;-66
2021/03/16 12:01:04;;;;;;;20.85;15.93;;;;;;;8.50;72.62;98739.59;1785372;80;21130;-65
2021/03/16 12:03:50;;;;;;;24.52;15.25;;;;;;;8.52;72.34;98732.11;1783735;80;23480;-65
2021/03/16 12:06:36;;;;;;;22.15;13.83;;;;;;;8.52;72.47;98732.11;1780117;80;21126;-66
2021/03/16 12:09:23;;;;;;;20.62;14.47;;;;;;;8.49;72.71;98724.57;1753892;81;21121;-68
2021/03/16 12:12:10;;;;;;;18.07;13.90;;;;;;;8.50;72.84;98726.72;1753791;81;21101;-68
2021/03/16 12:14:57;;;;;;;22.32;15.75;;;;;;;8.50;73.03;98724.86;1753804;81;21141;-67
2021/03/16 12:17:44;;;;;;;23.87;16.67;;;;;;;8.57;73.03;98720.61;1753253;81;21219;-66
2021/03/16 12:20:32;;;;;;;22.87;15.48;;;;;;;8.60;73.01;98723.57;1753369;80;20987;-68
2021/03/16 12:23:19;;;;;;;23.20;14.50;;;;;;;8.60;72.94;98718.21;1753271;81;21050;-68
2021/03/16 12:26:04;;;;;;;23.27;14.55;;;;;;;8.62;72.74;98726.81;1783186;80;21595;-65
2021/03/16 12:28:51;;;;;;;20.55;12.53;;;;;;;8.64;72.47;98711.79;1782131;80;21181;-67
2021/03/16 12:31:38;;;;;;;21.52;13.10;;;;;;;8.65;72.09;98724.12;1773758;80;21209;-66
2021/03/16 12:34:25;;;;;;;16.27;11.18;;;;;;;8.79;72.23;98725.80;1756913;80;21123;-65
2021/03/16 12:37:12;;;;;;;23.22;14.85;;;;;;;8.91;72.03;98734.44;1753300;81;21141;-65
2021/03/16 12:39:58;;;;;;;29.63;13.95;;;;;;;8.94;71.09;98737.39;1771273;80;20975;-65
2021/03/16 12:42:44;;;;;;;26.25;14.60;;;;;;;8.94;71.35;98730.69;1752037;80;21153;-64